createdAt,value
2023-08-28T00:01:30.704Z,101295.94
2023-08-28T00:03:57.270Z,101296.13
2023-08-28T00:06:23.770Z,101295.44
2023-08-28T00:08:50.236Z,101298.13
2023-08-28T00:11:16.734Z,101296.44
2023-08-28T00:13:43.204Z,101295.63
2023-08-28T00:16:09.712Z,101296.63
2023-08-28T00:18:36.174Z,101289.59
2023-08-28T00:21:04.052Z,101293.28
2023-08-28T00:23:33.498Z,101295.31
2023-08-28T00:26:03.278Z,101295.31
2023-08-28T00:28:29.802Z,101292.81
2023-08-28T00:30:56.296Z,101300.16
2023-08-28T00:33:22.775Z,101296.66
2023-08-28T00:35:50.674Z,101298.50
2023-08-28T00:38:17.175Z,101297.66
2023-08-28T00:40:44.173Z,101297.00
2023-08-28T00:43:10.679Z,101302.34
2023-08-28T00:45:42.822Z,101298.84
2023-08-28T00:48:10.673Z,101298.16
2023-08-28T00:50:38.305Z,101308.03
2023-08-28T00:53:05.298Z,101312.56
2023-08-28T00:55:35.517Z,101318.13
2023-08-28T00:58:02.946Z,101313.94
2023-08-28T01:00:29.445Z,101321.13
2023-08-28T01:02:56.294Z,101324.81
2023-08-28T01:05:30.485Z,101321.31
2023-08-28T01:08:03.946Z,101327.66
2023-08-28T01:10:40.056Z,101328.66
2023-08-28T01:13:16.810Z,101330.69
2023-08-28T01:18:10.978Z,101336.03
2023-08-28T01:20:38.009Z,101333.53
2023-08-28T01:23:13.049Z,101331.81
2023-08-28T01:25:40.543Z,101335.34
2023-08-28T01:28:08.658Z,101334.69
2023-08-28T01:30:37.481Z,101338.16
2023-08-28T01:33:04.452Z,101336.53
2023-08-28T01:35:32.252Z,101337.53
2023-08-28T01:38:17.421Z,101335.84
2023-08-28T01:40:45.361Z,101325.13
2023-08-28T01:43:12.969Z,101321.63
2023-08-28T01:45:39.903Z,101314.59
2023-08-28T01:48:06.998Z,101316.44
2023-08-28T01:50:33.866Z,101317.44
2023-08-28T01:53:00.566Z,101320.13
2023-08-28T01:56:02.562Z,101323.78
2023-08-28T01:58:30.544Z,101337.19
2023-08-28T02:00:57.045Z,101326.81
2023-08-28T02:03:23.588Z,101331.31
2023-08-28T02:05:50.078Z,101326.81
2023-08-28T02:08:16.567Z,101326.13
2023-08-28T02:10:43.029Z,101324.44
2023-08-28T02:13:09.499Z,101325.50
2023-08-28T02:15:35.957Z,101319.94
2023-08-28T02:18:02.492Z,101318.47
2023-08-28T02:20:29.096Z,101313.09
2023-08-28T02:22:55.614Z,101318.47
2023-08-28T02:25:24.266Z,101314.94
2023-08-28T02:27:51.002Z,101308.75
2023-08-28T02:30:17.813Z,101309.06
2023-08-28T02:32:45.311Z,101309.06
2023-08-28T02:35:14.968Z,101313.59
2023-08-28T02:37:41.625Z,101313.59
2023-08-28T02:40:08.409Z,101310.25
2023-08-28T02:42:34.848Z,101309.41
2023-08-28T02:45:01.381Z,101303.22
2023-08-28T02:47:27.900Z,101297.00
2023-08-28T02:49:54.341Z,101298.03
2023-08-28T02:52:20.785Z,101302.53
2023-08-28T02:54:47.261Z,101305.22
2023-08-28T02:57:13.710Z,101308.91
2023-08-28T02:59:40.198Z,101301.06
2023-08-28T03:02:06.930Z,101303.75
2023-08-28T03:04:35.364Z,101302.06
2023-08-28T03:07:02.004Z,101300.53
2023-08-28T03:09:30.411Z,101298.72
2023-08-28T03:11:57.256Z,101284.47
2023-08-28T03:14:23.747Z,101280.97
2023-08-28T03:16:50.236Z,101269.41
2023-08-28T03:19:16.665Z,101271.25
2023-08-28T03:21:43.221Z,101265.06
2023-08-28T03:24:09.662Z,101271.44
2023-08-28T03:26:36.215Z,101265.22
2023-08-28T03:29:02.669Z,101261.72
2023-08-28T03:31:29.351Z,101269.75
2023-08-28T03:33:55.905Z,101272.59
2023-08-28T03:36:22.412Z,101283.31
2023-08-28T03:38:48.958Z,101293.16
2023-08-28T03:41:15.448Z,101302.03
2023-08-28T03:43:41.945Z,101305.72
2023-08-28T03:46:08.456Z,101313.06
2023-08-28T03:48:35.027Z,101312.25
2023-08-28T03:51:02.041Z,101322.16
2023-08-28T03:53:28.492Z,101318.63
2023-08-28T03:55:54.954Z,101323.16
2023-08-28T03:58:23.214Z,101318.78
2023-08-28T04:00:53.214Z,101320.63
2023-08-28T04:03:19.744Z,101330.50
2023-08-28T04:05:46.798Z,101326.16
2023-08-28T04:08:13.400Z,101333.34
2023-08-28T04:10:39.869Z,101337.84
2023-08-28T04:13:06.531Z,101358.44
2023-08-28T04:15:33.207Z,101363.94
2023-08-28T04:18:00.926Z,101361.44
2023-08-28T04:20:27.552Z,101361.59
2023-08-28T04:22:54.025Z,101362.59
2023-08-28T04:25:20.811Z,101372.47
2023-08-28T04:27:47.324Z,101376.16
2023-08-28T04:30:13.905Z,101378.00
2023-08-28T04:32:40.546Z,101373.66
2023-08-28T04:35:08.178Z,101370.16
2023-08-28T04:37:35.251Z,101380.84
2023-08-28T04:40:02.026Z,101391.72
2023-08-28T04:42:28.476Z,101390.88
2023-08-28T04:44:54.911Z,101400.75
2023-08-28T04:47:22.560Z,101391.03
2023-08-28T04:49:49.460Z,101395.41
2023-08-28T04:52:15.972Z,101398.22
2023-08-28T04:54:42.448Z,101393.88
2023-08-28T04:57:09.006Z,101400.91
2023-08-28T04:59:35.464Z,101415.44
2023-08-28T05:02:03.112Z,101410.94
2023-08-28T05:04:29.620Z,101420.66
2023-08-28T05:06:56.099Z,101414.44
2023-08-28T05:09:22.559Z,101408.41
2023-08-28T05:11:49.054Z,101406.56
2023-08-28T05:14:15.510Z,101402.91
2023-08-28T05:16:42.086Z,101408.25
2023-08-28T05:19:08.565Z,101402.91
2023-08-28T05:21:35.046Z,101400.06
2023-08-28T05:24:01.534Z,101396.56
2023-08-28T05:26:27.955Z,101393.19
2023-08-28T05:28:54.472Z,101395.56
2023-08-28T05:31:20.936Z,101394.56
2023-08-28T05:33:47.485Z,101406.09
2023-08-28T05:36:14.300Z,101403.94
2023-08-28T05:38:40.766Z,101402.75
2023-08-28T05:41:07.200Z,101390.72
2023-08-28T05:43:33.661Z,101396.59
2023-08-28T05:46:00.161Z,101397.13
2023-08-28T05:48:26.597Z,101393.25
2023-08-28T05:50:53.053Z,101400.78
2023-08-28T05:53:19.548Z,101391.44
2023-08-28T05:55:46.261Z,101400.78
2023-08-28T05:58:12.765Z,101400.31
2023-08-28T06:00:39.307Z,101400.66
2023-08-28T06:03:05.981Z,101400.97
2023-08-28T06:05:32.852Z,101398.81
2023-08-28T06:07:59.392Z,101390.28
2023-08-28T06:10:25.868Z,101379.06
2023-08-28T06:12:52.408Z,101380.25
2023-08-28T06:15:19.879Z,101385.94
2023-08-28T06:17:46.939Z,101392.47
2023-08-28T06:20:13.510Z,101387.28
2023-08-28T06:22:41.894Z,101379.72
2023-08-28T06:25:09.351Z,101376.38
2023-08-28T06:27:35.954Z,101375.03
2023-08-28T06:30:05.235Z,101381.53
2023-08-28T06:32:31.782Z,101383.53
2023-08-28T06:34:58.412Z,101379.50
2023-08-28T06:37:26.043Z,101376.13
2023-08-28T06:39:55.936Z,101386.34
2023-08-28T06:42:23.575Z,101381.28
2023-08-28T06:44:51.444Z,101384.31
2023-08-28T06:47:18.168Z,101385.66
2023-08-28T06:49:44.780Z,101390.31
2023-08-28T06:52:11.440Z,101391.50
2023-08-28T06:54:50.986Z,101398.00
2023-08-28T06:57:18.312Z,101398.50
2023-08-28T06:59:45.017Z,101406.66
2023-08-28T07:02:11.581Z,101411.50
2023-08-28T13:47:01.850Z,101442.34
2023-08-28T14:24:08.822Z,101465.31
2023-08-28T14:36:45.051Z,101464.66
2023-08-28T14:59:20.289Z,101472.28
2023-08-28T15:08:44.563Z,101481.31
2023-08-28T15:15:00.094Z,101481.88
2023-08-28T15:24:17.429Z,101488.00
2023-08-28T15:27:18.748Z,101489.00
2023-08-28T15:36:15.662Z,101486.91
2023-08-28T15:39:14.591Z,101485.41
2023-08-28T15:41:59.323Z,101486.44
2023-08-28T15:45:17.456Z,101495.72
2023-08-28T15:50:54.454Z,101490.91
2023-08-28T16:15:06.836Z,101502.72
2023-08-28T16:18:27.451Z,101510.81
2023-08-28T16:20:55.915Z,101506.28
2023-08-28T16:35:18.220Z,101507.19
2023-08-28T16:42:23.885Z,101510.25
2023-08-28T17:22:35.727Z,101502.91
2023-08-28T17:25:35.870Z,101505.09
2023-08-28T19:00:48.500Z,101553.56
2023-08-28T19:59:25.454Z,101574.63
2023-08-28T20:02:03.624Z,101578.69
2023-08-28T20:05:02.753Z,101583.38
2023-08-28T20:07:40.015Z,101584.41
2023-08-28T20:14:42.451Z,101590.44
2023-08-28T21:09:20.743Z,101586.00
2023-08-28T21:12:07.967Z,101587.00
2023-08-28T21:18:28.083Z,101591.88
2023-08-28T21:21:50.207Z,101585.81
2023-08-28T21:30:21.288Z,101579.13
2023-08-28T21:36:03.422Z,101590.19
2023-08-28T21:41:56.614Z,101583.31
2023-08-28T21:57:25.660Z,101570.56
2023-08-28T22:46:01.094Z,101548.25
2023-08-28T23:19:51.629Z,101552.75
2023-08-28T23:31:06.554Z,101546.13
2023-08-28T23:37:07.664Z,101545.13
2023-08-28T23:40:15.254Z,101547.97
2023-08-28T23:42:58.591Z,101551.66
2023-08-28T23:49:00.522Z,101538.88
